sensor_id;sensor_type;location;lat;lon;timestamp;P1;durP1;ratioP1;P2;durP2;ratioP2
25984;SDS011;66753;53.848;10.658;2024-02-21T00:12:32;22.80;;;9.17;;
25984;SDS011;66753;53.848;10.658;2024-02-21T00:27:33;22.83;;;9.60;;
25984;SDS011;66753;53.848;10.658;2024-02-21T00:42:35;24.23;;;9.43;;
25984;SDS011;66753;53.848;10.658;2024-02-21T00:57:37;25.30;;;10.30;;
25984;SDS011;66753;53.848;10.658;2024-02-21T01:12:38;22.57;;;9.33;;
25984;SDS011;66753;53.848;10.658;2024-02-21T01:27:39;21.63;;;9.10;;
25984;SDS011;66753;53.848;10.658;2024-02-21T01:42:40;25.77;;;9.50;;
25984;SDS011;66753;53.848;10.658;2024-02-21T01:57:42;25.33;;;9.17;;
25984;SDS011;66753;53.848;10.658;2024-02-21T02:12:48;26.40;;;9.73;;
25984;SDS011;66753;53.848;10.658;2024-02-21T02:27:49;20.43;;;9.30;;
25984;SDS011;66753;53.848;10.658;2024-02-21T02:42:50;18.23;;;7.50;;
25984;SDS011;66753;53.848;10.658;2024-02-21T02:57:55;17.73;;;6.77;;
25984;SDS011;66753;53.848;10.658;2024-02-21T03:12:57;16.47;;;7.57;;
25984;SDS011;66753;53.848;10.658;2024-02-21T03:27:58;17.40;;;7.20;;
25984;SDS011;66753;53.848;10.658;2024-02-21T03:43:00;23.47;;;8.30;;
25984;SDS011;66753;53.848;10.658;2024-02-21T03:58:02;18.90;;;7.00;;
25984;SDS011;66753;53.848;10.658;2024-02-21T04:13:04;19.73;;;8.00;;
25984;SDS011;66753;53.848;10.658;2024-02-21T04:28:07;17.77;;;7.50;;
25984;SDS011;66753;53.848;10.658;2024-02-21T04:43:08;19.93;;;8.47;;
25984;SDS011;66753;53.848;10.658;2024-02-21T04:58:10;18.63;;;7.50;;
25984;SDS011;66753;53.848;10.658;2024-02-21T05:13:13;16.03;;;6.37;;
25984;SDS011;66753;53.848;10.658;2024-02-21T05:28:14;14.17;;;5.70;;
25984;SDS011;66753;53.848;10.658;2024-02-21T05:43:16;12.83;;;5.63;;
25984;SDS011;66753;53.848;10.658;2024-02-21T05:58:17;11.37;;;4.27;;
25984;SDS011;66753;53.848;10.658;2024-02-21T06:13:18;5.80;;;1.53;;
25984;SDS011;66753;53.848;10.658;2024-02-21T06:28:24;2.27;;;0.40;;
25984;SDS011;66753;53.848;10.658;2024-02-21T06:43:26;4.50;;;0.60;;
25984;SDS011;66753;53.848;10.658;2024-02-21T06:58:28;2.60;;;0.90;;
25984;SDS011;66753;53.848;10.658;2024-02-21T07:13:30;3.27;;;0.50;;
25984;SDS011;66753;53.848;10.658;2024-02-21T07:28:33;2.27;;;0.80;;
25984;SDS011;66753;53.848;10.658;2024-02-21T07:43:34;2.03;;;0.77;;
25984;SDS011;66753;53.848;10.658;2024-02-21T07:58:36;3.27;;;1.10;;
25984;SDS011;66753;53.848;10.658;2024-02-21T08:13:38;3.10;;;1.10;;
25984;SDS011;66753;53.848;10.658;2024-02-21T08:28:39;4.63;;;1.17;;
25984;SDS011;66753;53.848;10.658;2024-02-21T08:43:41;5.43;;;1.33;;
25984;SDS011;66753;53.848;10.658;2024-02-21T08:58:42;5.43;;;1.67;;
25984;SDS011;66753;53.848;10.658;2024-02-21T09:13:44;8.30;;;1.93;;
25984;SDS011;66753;53.848;10.658;2024-02-21T09:28:46;8.87;;;1.63;;
25984;SDS011;66753;53.848;10.658;2024-02-21T09:43:49;10.37;;;1.87;;
25984;SDS011;66753;53.848;10.658;2024-02-21T09:58:54;7.47;;;1.43;;
25984;SDS011;66753;53.848;10.658;2024-02-21T10:14:06;8.47;;;1.63;;
25984;SDS011;66753;53.848;10.658;2024-02-21T10:29:09;10.30;;;1.73;;
25984;SDS011;66753;53.848;10.658;2024-02-21T10:44:10;6.90;;;1.63;;
25984;SDS011;66753;53.848;10.658;2024-02-21T10:59:13;7.27;;;1.77;;
25984;SDS011;66753;53.848;10.658;2024-02-21T11:14:18;7.23;;;1.80;;
25984;SDS011;66753;53.848;10.658;2024-02-21T11:29:24;7.20;;;1.50;;
25984;SDS011;66753;53.848;10.658;2024-02-21T11:44:27;4.23;;;1.40;;
25984;SDS011;66753;53.848;10.658;2024-02-21T11:59:32;4.33;;;1.17;;
25984;SDS011;66753;53.848;10.658;2024-02-21T12:14:34;5.40;;;2.37;;
25984;SDS011;66753;53.848;10.658;2024-02-21T12:29:36;9.77;;;4.30;;
25984;SDS011;66753;53.848;10.658;2024-02-21T12:44:38;12.67;;;6.27;;
25984;SDS011;66753;53.848;10.658;2024-02-21T12:59:40;15.23;;;6.63;;
25984;SDS011;66753;53.848;10.658;2024-02-21T13:14:42;12.90;;;5.87;;
25984;SDS011;66753;53.848;10.658;2024-02-21T13:29:44;15.03;;;5.93;;
25984;SDS011;66753;53.848;10.658;2024-02-21T13:44:46;11.27;;;5.13;;
25984;SDS011;66753;53.848;10.658;2024-02-21T13:59:48;10.77;;;4.97;;
25984;SDS011;66753;53.848;10.658;2024-02-21T14:14:50;12.83;;;5.83;;
25984;SDS011;66753;53.848;10.658;2024-02-21T14:29:52;11.23;;;5.57;;
25984;SDS011;66753;53.848;10.658;2024-02-21T14:44:54;12.77;;;5.50;;
25984;SDS011;66753;53.848;10.658;2024-02-21T15:00:06;14.40;;;6.10;;
25984;SDS011;66753;53.848;10.658;2024-02-21T15:15:09;10.53;;;5.53;;
25984;SDS011;66753;53.848;10.658;2024-02-21T15:30:10;14.50;;;6.40;;
25984;SDS011;66753;53.848;10.658;2024-02-21T15:45:12;14.70;;;6.93;;
25984;SDS011;66753;53.848;10.658;2024-02-21T16:00:15;15.80;;;6.87;;
25984;SDS011;66753;53.848;10.658;2024-02-21T16:15:16;15.50;;;6.83;;
25984;SDS011;66753;53.848;10.658;2024-02-21T16:30:18;14.37;;;6.43;;
25984;SDS011;66753;53.848;10.658;2024-02-21T16:45:20;10.10;;;5.27;;
25984;SDS011;66753;53.848;10.658;2024-02-21T17:00:22;11.77;;;6.07;;
25984;SDS011;66753;53.848;10.658;2024-02-21T17:15:23;11.63;;;5.20;;
25984;SDS011;66753;53.848;10.658;2024-02-21T17:30:25;8.47;;;4.60;;
25984;SDS011;66753;53.848;10.658;2024-02-21T17:45:27;8.23;;;4.07;;
25984;SDS011;66753;53.848;10.658;2024-02-21T18:00:28;6.13;;;3.00;;
25984;SDS011;66753;53.848;10.658;2024-02-21T18:15:33;5.50;;;3.23;;
25984;SDS011;66753;53.848;10.658;2024-02-21T18:30:36;5.10;;;2.63;;
25984;SDS011;66753;53.848;10.658;2024-02-21T18:45:38;7.93;;;3.47;;
25984;SDS011;66753;53.848;10.658;2024-02-21T19:00:40;5.93;;;2.70;;
25984;SDS011;66753;53.848;10.658;2024-02-21T19:15:42;6.30;;;2.77;;
25984;SDS011;66753;53.848;10.658;2024-02-21T19:30:44;6.67;;;3.00;;
25984;SDS011;66753;53.848;10.658;2024-02-21T19:45:46;4.97;;;2.33;;
25984;SDS011;66753;53.848;10.658;2024-02-21T20:00:47;6.27;;;2.67;;
25984;SDS011;66753;53.848;10.658;2024-02-21T20:15:48;6.07;;;2.60;;
25984;SDS011;66753;53.848;10.658;2024-02-21T20:30:49;6.37;;;2.70;;
25984;SDS011;66753;53.848;10.658;2024-02-21T20:45:53;5.87;;;2.40;;
25984;SDS011;66753;53.848;10.658;2024-02-21T21:00:54;7.10;;;2.57;;
25984;SDS011;66753;53.848;10.658;2024-02-21T21:15:56;4.50;;;1.93;;
25984;SDS011;66753;53.848;10.658;2024-02-21T21:30:58;7.93;;;2.33;;
25984;SDS011;66753;53.848;10.658;2024-02-21T21:45:59;5.37;;;1.83;;
25984;SDS011;66753;53.848;10.658;2024-02-21T22:01:00;5.60;;;1.93;;
25984;SDS011;66753;53.848;10.658;2024-02-21T22:16:01;5.77;;;2.20;;
25984;SDS011;66753;53.848;10.658;2024-02-21T22:31:06;7.33;;;2.23;;
25984;SDS011;66753;53.848;10.658;2024-02-21T22:46:10;5.47;;;2.50;;
25984;SDS011;66753;53.848;10.658;2024-02-21T23:01:12;4.83;;;2.07;;
25984;SDS011;66753;53.848;10.658;2024-02-21T23:16:17;5.50;;;2.20;;
25984;SDS011;66753;53.848;10.658;2024-02-21T23:31:18;6.50;;;2.27;;
25984;SDS011;66753;53.848;10.658;2024-02-21T23:46:19;6.57;;;2.00;;
